Time;durP1;ratioP1;P1;durP2;ratioP2;P2;SDS_P1;SDS_P2;PMS_P1;PMS_P2;Temp;Humidity;BMP_temperature;BMP_pressure;BME280_temperature;BME280_humidity;BME280_pressure;Samples;Min_cycle;Max_cycle;Signal;HPM_P1;HPM_P2
2023/04/30 00:02:13;;;;;;;0.95;0.40;;;;;;;;;;4984359;28;59133;-70
2023/04/30 00:04:38;;;;;;;0.25;0.20;;;;;;;;;;4977567;28;59699;-71
2023/04/30 00:07:04;;;;;;;0.73;0.50;;;;;;;;;;4974219;28;59768;-70
2023/04/30 00:09:29;;;;;;;0.23;0.10;;;;;;;;;;4982600;28;59387;-71
2023/04/30 00:11:54;;;;;;;0.27;0.20;;;;;;;;;;4982982;28;59273;-71
2023/04/30 00:14:19;;;;;;;1.13;0.82;;;;;;;;;;4982213;28;59252;-71
2023/04/30 00:16:45;;;;;;;0.35;0.35;;;;;;;;;;4973384;28;59196;-71
2023/04/30 00:19:10;;;;;;;1.33;0.40;;;;;;;;;;4984887;28;60019;-69
2023/04/30 00:21:35;;;;;;;0.60;0.33;;;;;;;;;;4983438;28;59184;-71
2023/04/30 00:24:00;;;;;;;0.47;0.40;;;;;;;;;;4984736;28;59906;-71
2023/04/30 00:26:26;;;;;;;0.40;0.40;;;;;;;;;;4979633;28;59066;-70
2023/04/30 00:28:51;;;;;;;0.33;0.33;;;;;;;;;;4975197;28;59721;-71
2023/04/30 00:31:16;;;;;;;0.20;0.20;;;;;;;;;;4982727;28;59336;-69
2023/04/30 00:33:41;;;;;;;0.73;0.43;;;;;;;;;;4986052;28;59082;-71
2023/04/30 00:36:06;;;;;;;0.32;0.30;;;;;;;;;;4984156;28;60350;-71
2023/04/30 00:38:31;;;;;;;2.47;0.97;;;;;;;;;;4973719;28;59298;-70
2023/04/30 00:40:57;;;;;;;0.38;0.38;;;;;;;;;;4982141;28;59216;-71
2023/04/30 00:43:22;;;;;;;0.45;0.30;;;;;;;;;;4978062;28;59970;-71
2023/04/30 00:45:47;;;;;;;0.52;0.50;;;;;;;;;;4984246;28;59278;-71
2023/04/30 00:48:12;;;;;;;0.50;0.50;;;;;;;;;;4984352;28;59217;-71
2023/04/30 00:50:38;;;;;;;0.55;0.50;;;;;;;;;;4976677;28;59206;-70
2023/04/30 00:53:03;;;;;;;0.38;0.30;;;;;;;;;;4980758;28;60815;-70
2023/04/30 00:55:29;;;;;;;0.50;0.30;;;;;;;;;;4978689;28;59378;-71
2023/04/30 00:57:54;;;;;;;0.47;0.40;;;;;;;;;;4982546;28;59297;-71
2023/04/30 01:00:20;;;;;;;0.37;0.30;;;;;;;;;;4980604;28;59608;-71
2023/04/30 01:02:45;;;;;;;0.25;0.25;;;;;;;;;;4976710;28;59561;-71
2023/04/30 01:05:11;;;;;;;0.30;0.30;;;;;;;;;;4980993;28;59673;-71
2023/04/30 01:07:43;;;;;;;1.40;0.88;;;;;;;;;;4983779;28;59837;-71
2023/04/30 01:10:08;;;;;;;0.30;0.30;;;;;;;;;;4985142;28;59068;-71
2023/04/30 01:12:42;;;;;;;0.40;0.30;;;;;;;;;;4978279;28;59318;-70
2023/04/30 01:15:14;;;;;;;0.73;0.73;;;;;;;;;;4979857;28;59214;-69
2023/04/30 01:17:58;;;;;;;0.20;0.20;;;;;;;;;;4980001;28;59034;-71
2023/04/30 01:20:25;;;;;;;1.10;1.00;;;;;;;;;;4982397;28;59623;-71
2023/04/30 01:22:53;;;;;;;0.43;0.20;;;;;;;;;;4977168;28;59585;-71
2023/04/30 01:25:34;;;;;;;1.40;0.82;;;;;;;;;;4976744;28;59481;-71
2023/04/30 01:28:01;;;;;;;0.45;0.30;;;;;;;;;;4982678;28;59551;-71
2023/04/30 01:30:27;;;;;;;0.20;0.20;;;;;;;;;;4983113;28;59122;-71
2023/04/30 01:32:52;;;;;;;0.35;0.28;;;;;;;;;;4978187;28;59200;-71
2023/04/30 01:35:18;;;;;;;0.20;0.20;;;;;;;;;;4971460;28;59153;-71
2023/04/30 01:37:50;;;;;;;0.65;0.40;;;;;;;;;;4980296;28;59633;-71
2023/04/30 01:40:31;;;;;;;0.40;0.28;;;;;;;;;;4982381;28;59227;-71
2023/04/30 01:43:18;;;;;;;1.02;0.30;;;;;;;;;;4982302;28;59684;-71
2023/04/30 01:45:43;;;;;;;0.10;0.10;;;;;;;;;;4972901;28;59182;-66
2023/04/30 01:48:21;;;;;;;0.47;0.30;;;;;;;;;;4978174;28;59521;-71
2023/04/30 01:50:48;;;;;;;0.20;0.20;;;;;;;;;;4982102;28;59925;-70
2023/04/30 01:53:17;;;;;;;1.02;0.30;;;;;;;;;;4981477;28;59398;-71
2023/04/30 01:55:43;;;;;;;0.22;0.22;;;;;;;;;;4974979;28;59488;-71
2023/04/30 01:58:10;;;;;;;1.00;0.28;;;;;;;;;;4979713;28;59801;-70
2023/04/30 02:00:35;;;;;;;0.50;0.35;;;;;;;;;;4979304;28;59564;-71
2023/04/30 02:03:00;;;;;;;0.23;0.23;;;;;;;;;;4981957;28;58654;-70
2023/04/30 02:05:25;;;;;;;0.50;0.50;;;;;;;;;;4982222;28;60269;-69
2023/04/30 02:07:51;;;;;;;0.60;0.60;;;;;;;;;;4969733;28;59124;-71
2023/04/30 02:10:18;;;;;;;1.15;0.40;;;;;;;;;;4982634;28;59037;-70
2023/04/30 02:12:43;;;;;;;0.25;0.22;;;;;;;;;;4977738;28;59338;-71
2023/04/30 02:15:09;;;;;;;0.57;0.57;;;;;;;;;;4978299;28;59116;-71
2023/04/30 02:17:34;;;;;;;0.40;0.32;;;;;;;;;;4976689;28;59780;-70
2023/04/30 02:19:59;;;;;;;0.27;0.20;;;;;;;;;;4978286;28;59237;-71
2023/04/30 02:22:25;;;;;;;0.63;0.33;;;;;;;;;;4978494;28;59160;-71
2023/04/30 02:24:50;;;;;;;1.65;0.38;;;;;;;;;;4980806;28;59077;-71
2023/04/30 02:27:16;;;;;;;0.20;0.20;;;;;;;;;;4981414;28;59600;-70
2023/04/30 02:29:41;;;;;;;0.23;0.23;;;;;;;;;;4972383;28;59255;-71
2023/04/30 02:32:06;;;;;;;0.27;0.27;;;;;;;;;;4983689;28;59406;-71
2023/04/30 02:34:31;;;;;;;0.43;0.43;;;;;;;;;;4979655;28;59667;-71
2023/04/30 02:36:56;;;;;;;0.32;0.32;;;;;;;;;;4977599;28;59801;-70
2023/04/30 02:39:21;;;;;;;0.60;0.38;;;;;;;;;;4972946;28;59087;-71
2023/04/30 02:41:46;;;;;;;0.30;0.30;;;;;;;;;;4980798;28;59343;-71
2023/04/30 02:44:12;;;;;;;0.25;0.20;;;;;;;;;;4982213;28;59360;-71
2023/04/30 02:46:37;;;;;;;0.37;0.30;;;;;;;;;;4983363;28;59577;-71
2023/04/30 02:49:02;;;;;;;0.20;0.20;;;;;;;;;;4978878;28;59584;-71
2023/04/30 02:51:27;;;;;;;0.13;0.13;;;;;;;;;;4983440;28;59154;-71
2023/04/30 02:53:52;;;;;;;1.90;0.40;;;;;;;;;;4983942;28;59517;-69
2023/04/30 02:56:17;;;;;;;1.00;0.30;;;;;;;;;;4986128;28;59458;-71
2023/04/30 02:58:43;;;;;;;0.30;0.30;;;;;;;;;;4978549;28;59451;-71
2023/04/30 03:01:08;;;;;;;0.25;0.20;;;;;;;;;;4975124;28;59199;-70
2023/04/30 03:03:33;;;;;;;0.30;0.30;;;;;;;;;;4981185;28;59335;-71
2023/04/30 03:05:58;;;;;;;0.20;0.20;;;;;;;;;;4983885;28;59204;-70
2023/04/30 03:08:23;;;;;;;0.32;0.25;;;;;;;;;;4983516;28;58506;-70
2023/04/30 03:10:49;;;;;;;0.43;0.40;;;;;;;;;;4974167;28;59094;-71
2023/04/30 03:13:14;;;;;;;0.30;0.30;;;;;;;;;;4980283;28;59344;-71
2023/04/30 03:15:40;;;;;;;0.28;0.28;;;;;;;;;;4980530;28;59442;-70
2023/04/30 03:18:05;;;;;;;0.43;0.43;;;;;;;;;;4984394;28;60454;-70
2023/04/30 03:20:30;;;;;;;0.17;0.17;;;;;;;;;;4980284;28;59627;-71
2023/04/30 03:22:55;;;;;;;0.67;0.40;;;;;;;;;;4982404;28;59927;-70
2023/04/30 03:25:21;;;;;;;0.20;0.20;;;;;;;;;;4984670;28;59070;-71
2023/04/30 03:27:46;;;;;;;0.10;0.10;;;;;;;;;;4985462;28;59250;-71
2023/04/30 03:30:11;;;;;;;0.15;0.15;;;;;;;;;;4983289;28;60005;-70
2023/04/30 03:32:37;;;;;;;0.90;0.33;;;;;;;;;;4979058;28;59216;-70
2023/04/30 03:35:02;;;;;;;0.43;0.43;;;;;;;;;;4983900;28;59165;-71
2023/04/30 03:37:28;;;;;;;0.30;0.10;;;;;;;;;;4979740;28;59198;-70
2023/04/30 03:39:53;;;;;;;0.20;0.20;;;;;;;;;;4981620;28;59056;-70
2023/04/30 03:42:18;;;;;;;0.40;0.40;;;;;;;;;;4985481;28;59685;-70
2023/04/30 03:44:43;;;;;;;0.40;0.40;;;;;;;;;;4976274;28;58483;-71
2023/04/30 03:47:08;;;;;;;0.10;0.10;;;;;;;;;;4982750;28;59521;-71
2023/04/30 03:49:33;;;;;;;0.23;0.23;;;;;;;;;;4987979;28;59076;-71
2023/04/30 03:51:59;;;;;;;0.47;0.27;;;;;;;;;;4982912;28;59320;-70
2023/04/30 03:54:25;;;;;;;0.80;0.30;;;;;;;;;;4983861;28;59215;-70
2023/04/30 03:56:50;;;;;;;0.20;0.20;;;;;;;;;;4972208;28;60062;-71
2023/04/30 03:59:15;;;;;;;0.60;0.30;;;;;;;;;;4982602;28;59102;-71
2023/04/30 04:01:41;;;;;;;0.98;0.30;;;;;;;;;;4982395;28;59583;-71
2023/04/30 04:04:06;;;;;;;0.70;0.40;;;;;;;;;;4981928;28;59560;-71
2023/04/30 04:06:31;;;;;;;0.32;0.25;;;;;;;;;;4992652;28;59605;-70
2023/04/30 04:08:57;;;;;;;0.20;0.20;;;;;;;;;;4979885;28;59143;-71
2023/04/30 04:11:22;;;;;;;0.20;0.10;;;;;;;;;;4981047;28;59486;-70
2023/04/30 04:13:47;;;;;;;0.23;0.13;;;;;;;;;;4983007;28;59551;-71
2023/04/30 04:16:12;;;;;;;0.38;0.30;;;;;;;;;;4980316;28;59640;-71
2023/04/30 04:18:37;;;;;;;0.80;0.30;;;;;;;;;;4973035;28;59535;-71
2023/04/30 04:21:03;;;;;;;0.90;0.33;;;;;;;;;;4974174;28;59317;-71
2023/04/30 04:23:28;;;;;;;0.40;0.40;;;;;;;;;;4974820;28;59436;-69
2023/04/30 04:25:53;;;;;;;0.30;0.30;;;;;;;;;;4972896;28;59496;-71
2023/04/30 04:28:18;;;;;;;0.43;0.40;;;;;;;;;;4978525;28;59738;-70
2023/04/30 04:30:44;;;;;;;0.43;0.37;;;;;;;;;;4976043;28;59655;-71
2023/04/30 04:33:10;;;;;;;0.15;0.10;;;;;;;;;;4984129;28;59490;-71
2023/04/30 04:35:36;;;;;;;0.30;0.25;;;;;;;;;;4982523;28;59951;-70
2023/04/30 04:38:01;;;;;;;0.35;0.35;;;;;;;;;;4983465;28;59450;-70
2023/04/30 04:40:26;;;;;;;1.15;0.70;;;;;;;;;;4972160;28;59565;-71
2023/04/30 04:42:52;;;;;;;0.60;0.60;;;;;;;;;;4983430;28;59341;-69
2023/04/30 04:45:19;;;;;;;0.73;0.40;;;;;;;;;;4983416;28;59475;-69
2023/04/30 04:47:44;;;;;;;0.32;0.28;;;;;;;;;;4982581;28;59611;-71
2023/04/30 04:50:09;;;;;;;0.57;0.13;;;;;;;;;;4974753;28;59332;-71
2023/04/30 04:52:35;;;;;;;0.47;0.20;;;;;;;;;;4979528;28;59382;-70
2023/04/30 04:55:00;;;;;;;0.57;0.20;;;;;;;;;;4981824;28;59862;-71
2023/04/30 04:57:25;;;;;;;2.55;0.50;;;;;;;;;;4981196;28;59457;-71
2023/04/30 04:59:50;;;;;;;0.20;0.20;;;;;;;;;;4976300;28;59141;-70
2023/04/30 05:02:15;;;;;;;0.60;0.20;;;;;;;;;;4972575;28;59274;-70
2023/04/30 05:04:41;;;;;;;0.30;0.30;;;;;;;;;;4977384;28;59491;-71
2023/04/30 05:07:06;;;;;;;0.60;0.30;;;;;;;;;;4986253;28;59665;-71
2023/04/30 05:09:32;;;;;;;0.40;0.30;;;;;;;;;;4980845;28;59670;-70
2023/04/30 05:11:57;;;;;;;0.38;0.38;;;;;;;;;;4973775;28;59509;-71
2023/04/30 05:14:22;;;;;;;0.60;0.60;;;;;;;;;;4983216;28;59466;-71
2023/04/30 05:16:48;;;;;;;1.83;0.47;;;;;;;;;;4982363;28;59271;-68
2023/04/30 05:19:13;;;;;;;0.68;0.50;;;;;;;;;;4981553;28;59423;-71
2023/04/30 05:21:39;;;;;;;0.40;0.40;;;;;;;;;;4980061;28;59629;-71
2023/04/30 05:24:04;;;;;;;0.17;0.17;;;;;;;;;;4973056;28;59135;-70
2023/04/30 05:26:29;;;;;;;0.88;0.82;;;;;;;;;;4983365;28;60150;-71
2023/04/30 05:28:54;;;;;;;0.40;0.30;;;;;;;;;;4981695;28;59620;-70
2023/04/30 05:31:20;;;;;;;0.13;0.10;;;;;;;;;;4979384;28;59346;-70
2023/04/30 05:33:45;;;;;;;0.60;0.15;;;;;;;;;;4969180;28;59587;-71
2023/04/30 05:36:10;;;;;;;0.30;0.20;;;;;;;;;;4971729;28;59378;-71
2023/04/30 05:38:35;;;;;;;0.30;0.20;;;;;;;;;;4973217;28;59115;-70
2023/04/30 05:41:01;;;;;;;0.45;0.35;;;;;;;;;;4977560;28;59352;-71
2023/04/30 05:43:26;;;;;;;0.80;0.40;;;;;;;;;;4971136;28;59464;-71
2023/04/30 05:45:51;;;;;;;1.07;0.60;;;;;;;;;;4979721;28;60022;-71
2023/04/30 05:48:16;;;;;;;0.38;0.30;;;;;;;;;;4982391;28;59351;-71
2023/04/30 05:50:42;;;;;;;0.17;0.17;;;;;;;;;;4975638;28;59131;-71
2023/04/30 05:53:07;;;;;;;0.57;0.30;;;;;;;;;;4974170;28;59879;-71
2023/04/30 05:55:33;;;;;;;0.10;0.10;;;;;;;;;;4964148;28;59344;-69
2023/04/30 05:57:58;;;;;;;1.58;0.40;;;;;;;;;;4972034;28;59089;-68
2023/04/30 06:00:23;;;;;;;0.50;0.35;;;;;;;;;;4975635;28;59457;-70
2023/04/30 06:02:48;;;;;;;0.40;0.30;;;;;;;;;;4972662;28;59396;-71
2023/04/30 06:05:14;;;;;;;0.20;0.20;;;;;;;;;;4967309;28;59504;-71
2023/04/30 06:07:39;;;;;;;1.33;0.50;;;;;;;;;;4975025;28;59746;-70
2023/04/30 06:10:04;;;;;;;0.55;0.40;;;;;;;;;;4979790;28;59198;-70
2023/04/30 06:12:30;;;;;;;0.30;0.30;;;;;;;;;;4977686;28;59214;-70
2023/04/30 06:14:55;;;;;;;0.37;0.37;;;;;;;;;;4971889;28;59703;-70
2023/04/30 06:17:20;;;;;;;0.70;0.67;;;;;;;;;;4974534;28;58705;-71
2023/04/30 06:19:45;;;;;;;1.23;0.30;;;;;;;;;;4972461;28;59236;-68
2023/04/30 06:22:10;;;;;;;0.10;0.10;;;;;;;;;;4975439;28;59283;-71
2023/04/30 06:24:35;;;;;;;0.60;0.47;;;;;;;;;;4980677;28;59095;-71
2023/04/30 06:27:01;;;;;;;0.70;0.20;;;;;;;;;;4967412;28;59269;-71
2023/04/30 06:29:27;;;;;;;0.55;0.40;;;;;;;;;;4977121;28;59217;-71
2023/04/30 06:31:52;;;;;;;0.60;0.20;;;;;;;;;;4974068;28;59642;-70
2023/04/30 06:34:18;;;;;;;0.37;0.37;;;;;;;;;;4973880;28;59283;-69
2023/04/30 06:36:43;;;;;;;0.45;0.40;;;;;;;;;;4965844;28;59266;-71
2023/04/30 06:39:08;;;;;;;0.35;0.20;;;;;;;;;;4970624;28;59269;-71
2023/04/30 06:41:33;;;;;;;1.92;0.20;;;;;;;;;;4972761;28;59610;-71
2023/04/30 06:43:58;;;;;;;0.40;0.30;;;;;;;;;;4978124;28;59315;-71
2023/04/30 06:46:24;;;;;;;0.30;0.30;;;;;;;;;;4966984;28;59967;-70
2023/04/30 06:48:49;;;;;;;0.10;0.10;;;;;;;;;;4975636;28;59239;-71
2023/04/30 06:51:14;;;;;;;1.70;0.57;;;;;;;;;;4975175;28;59456;-70
2023/04/30 06:53:40;;;;;;;2.17;0.98;;;;;;;;;;4973294;28;59471;-70
2023/04/30 06:56:05;;;;;;;3.65;1.17;;;;;;;;;;4975853;28;58587;-71
2023/04/30 06:58:30;;;;;;;1.73;1.57;;;;;;;;;;4971649;28;59174;-71
2023/04/30 07:00:56;;;;;;;4.20;2.50;;;;;;;;;;4978859;28;59529;-71
2023/04/30 07:03:22;;;;;;;4.10;2.67;;;;;;;;;;4981618;28;59130;-70
2023/04/30 07:05:47;;;;;;;4.87;3.30;;;;;;;;;;4981543;28;59176;-71
2023/04/30 07:08:13;;;;;;;4.17;3.20;;;;;;;;;;4964910;28;59461;-71
2023/04/30 07:10:39;;;;;;;4.75;3.17;;;;;;;;;;4969634;28;59232;-68
2023/04/30 07:13:06;;;;;;;5.03;3.70;;;;;;;;;;4975593;28;59777;-71
2023/04/30 07:15:31;;;;;;;6.25;4.22;;;;;;;;;;4975399;28;59064;-71
2023/04/30 07:17:56;;;;;;;7.28;4.20;;;;;;;;;;4976045;28;59555;-69
2023/04/30 07:20:22;;;;;;;9.30;3.72;;;;;;;;;;4968052;28;59400;-71
2023/04/30 07:22:48;;;;;;;9.97;4.67;;;;;;;;;;4981294;28;59284;-70
2023/04/30 07:25:13;;;;;;;5.65;3.90;;;;;;;;;;4978711;28;59651;-71
2023/04/30 07:27:39;;;;;;;5.40;4.17;;;;;;;;;;4969086;28;59551;-71
2023/04/30 07:30:05;;;;;;;9.57;4.30;;;;;;;;;;4970676;28;59267;-70
2023/04/30 07:32:30;;;;;;;9.25;4.78;;;;;;;;;;4982616;28;59369;-71
2023/04/30 07:34:55;;;;;;;7.83;4.30;;;;;;;;;;4979177;28;59249;-71
2023/04/30 07:37:20;;;;;;;9.20;5.05;;;;;;;;;;4971815;28;59276;-71
2023/04/30 07:39:46;;;;;;;9.43;5.47;;;;;;;;;;4972612;28;59177;-70
2023/04/30 07:42:11;;;;;;;7.68;4.50;;;;;;;;;;4984492;28;59200;-71
2023/04/30 07:44:36;;;;;;;7.33;5.23;;;;;;;;;;4982967;28;59367;-70
2023/04/30 07:47:02;;;;;;;6.03;4.88;;;;;;;;;;4980415;28;59392;-71
2023/04/30 07:49:27;;;;;;;9.63;5.25;;;;;;;;;;4978535;28;59393;-70
2023/04/30 07:51:53;;;;;;;5.38;4.40;;;;;;;;;;4977169;28;59269;-71
2023/04/30 07:54:18;;;;;;;5.47;4.17;;;;;;;;;;4994085;28;59781;-68
2023/04/30 07:56:43;;;;;;;6.43;4.82;;;;;;;;;;4982734;28;59329;-71
2023/04/30 07:59:08;;;;;;;4.65;4.03;;;;;;;;;;4978818;28;59381;-71
2023/04/30 08:01:33;;;;;;;7.20;4.57;;;;;;;;;;4965424;28;59548;-71
2023/04/30 08:03:58;;;;;;;6.20;4.10;;;;;;;;;;4977105;28;59218;-70
2023/04/30 08:06:24;;;;;;;5.23;4.47;;;;;;;;;;4970704;28;59337;-71
2023/04/30 08:08:49;;;;;;;9.32;5.25;;;;;;;;;;4975799;28;59514;-71
2023/04/30 08:11:15;;;;;;;5.70;4.23;;;;;;;;;;4973344;28;60014;-71
2023/04/30 08:13:40;;;;;;;6.07;5.15;;;;;;;;;;4981796;28;59212;-70
2023/04/30 08:16:05;;;;;;;6.35;4.80;;;;;;;;;;4983876;28;59932;-71
2023/04/30 08:18:31;;;;;;;7.67;4.50;;;;;;;;;;4977373;28;59039;-70
2023/04/30 08:20:56;;;;;;;8.32;4.85;;;;;;;;;;4976074;28;59707;-68
2023/04/30 08:23:21;;;;;;;8.37;4.80;;;;;;;;;;4976865;28;59790;-71
2023/04/30 08:25:46;;;;;;;5.80;3.87;;;;;;;;;;4974294;28;59212;-71
2023/04/30 08:28:11;;;;;;;10.57;4.33;;;;;;;;;;4972875;28;59547;-71
2023/04/30 08:30:37;;;;;;;6.07;3.60;;;;;;;;;;4982596;28;59646;-71
2023/04/30 08:33:02;;;;;;;5.78;4.88;;;;;;;;;;4971463;28;59305;-71
2023/04/30 08:35:28;;;;;;;6.20;4.80;;;;;;;;;;4982239;28;59202;-71
2023/04/30 08:37:54;;;;;;;6.53;3.92;;;;;;;;;;4983629;28;60495;-72
2023/04/30 08:40:19;;;;;;;4.60;3.35;;;;;;;;;;4977729;28;59421;-71
2023/04/30 08:42:49;;;;;;;6.07;4.17;;;;;;;;;;4982336;28;59269;-68
2023/04/30 08:45:15;;;;;;;6.40;4.15;;;;;;;;;;4975610;28;59251;-71
2023/04/30 08:47:40;;;;;;;6.53;4.25;;;;;;;;;;4982621;28;59224;-71
2023/04/30 08:50:06;;;;;;;5.82;4.35;;;;;;;;;;4980723;28;59755;-71
2023/04/30 08:52:33;;;;;;;6.35;3.80;;;;;;;;;;4978565;28;59159;-71
2023/04/30 08:55:00;;;;;;;5.63;4.00;;;;;;;;;;4975958;28;59461;-70
2023/04/30 08:57:25;;;;;;;6.13;4.05;;;;;;;;;;4979027;28;59320;-70
2023/04/30 08:59:50;;;;;;;6.17;3.93;;;;;;;;;;4980742;28;59192;-70
2023/04/30 09:02:15;;;;;;;6.28;4.45;;;;;;;;;;4972691;28;59328;-71
2023/04/30 09:04:40;;;;;;;3.80;3.27;;;;;;;;;;4977354;28;59375;-70
2023/04/30 09:07:05;;;;;;;6.60;4.82;;;;;;;;;;4979086;28;59365;-71
2023/04/30 09:09:37;;;;;;;5.20;4.70;;;;;;;;;;4985297;28;59916;-70
2023/04/30 09:12:12;;;;;;;5.15;4.20;;;;;;;;;;4981175;28;59046;-71
2023/04/30 09:14:39;;;;;;;5.20;3.83;;;;;;;;;;4982613;28;59921;-68
2023/04/30 09:17:04;;;;;;;5.28;4.05;;;;;;;;;;4972230;28;59949;-71
2023/04/30 09:19:30;;;;;;;4.85;3.63;;;;;;;;;;4973355;28;59201;-71
2023/04/30 09:21:55;;;;;;;6.20;3.95;;;;;;;;;;4975280;28;60956;-71
2023/04/30 09:24:20;;;;;;;6.13;3.80;;;;;;;;;;4975119;28;60845;-71
2023/04/30 09:26:46;;;;;;;4.57;3.67;;;;;;;;;;4970250;28;59724;-68
2023/04/30 09:29:11;;;;;;;4.57;3.50;;;;;;;;;;4971167;28;59568;-71
2023/04/30 09:31:37;;;;;;;5.00;3.80;;;;;;;;;;4975666;28;59118;-71
2023/04/30 09:34:03;;;;;;;4.45;3.33;;;;;;;;;;4980007;28;59563;-71
2023/04/30 09:36:28;;;;;;;3.85;3.45;;;;;;;;;;4982247;28;59363;-70
2023/04/30 09:38:54;;;;;;;5.25;3.38;;;;;;;;;;4966940;28;59209;-70
2023/04/30 09:41:26;;;;;;;5.05;3.60;;;;;;;;;;4988793;28;61351;-71
2023/04/30 09:43:52;;;;;;;19.67;4.47;;;;;;;;;;4976889;28;59258;-72
2023/04/30 09:46:18;;;;;;;3.33;2.70;;;;;;;;;;4976402;28;59847;-72
2023/04/30 09:48:43;;;;;;;5.55;3.15;;;;;;;;;;4978544;28;61496;-72
2023/04/30 09:51:08;;;;;;;3.63;2.70;;;;;;;;;;4976787;28;59120;-73
2023/04/30 09:53:36;;;;;;;5.83;3.70;;;;;;;;;;4973698;28;59763;-69
2023/04/30 09:56:02;;;;;;;;;;;;;;;;;;4977921;28;59580;-72
2023/04/30 09:58:27;;;;;;;3.70;2.30;;;;;;;;;;4971278;28;59482;-73
2023/04/30 10:00:53;;;;;;;4.45;3.35;;;;;;;;;;4974260;28;59197;-70
2023/04/30 10:03:19;;;;;;;5.47;3.03;;;;;;;;;;4974116;28;59540;-66
2023/04/30 10:05:46;;;;;;;3.75;3.10;;;;;;;;;;4976012;28;59212;-69
2023/04/30 10:08:32;;;;;;;4.35;2.58;;;;;;;;;;4969070;28;60005;-71
2023/04/30 10:11:00;;;;;;;3.80;2.78;;;;;;;;;;4979285;28;59435;-72
2023/04/30 10:13:27;;;;;;;3.10;2.78;;;;;;;;;;4974355;28;59281;-71
2023/04/30 10:15:56;;;;;;;3.13;2.83;;;;;;;;;;4971680;28;59934;-71
2023/04/30 10:18:25;;;;;;;5.28;2.95;;;;;;;;;;4976642;28;59265;-72
2023/04/30 10:20:52;;;;;;;4.53;2.95;;;;;;;;;;4976578;28;59107;-72
2023/04/30 10:23:18;;;;;;;7.83;2.63;;;;;;;;;;4978124;28;59615;-72
2023/04/30 10:25:43;;;;;;;5.15;2.47;;;;;;;;;;4977490;28;59172;-71
2023/04/30 10:28:09;;;;;;;3.03;2.53;;;;;;;;;;4982119;28;59590;-73
2023/04/30 10:30:35;;;;;;;5.22;2.80;;;;;;;;;;4974019;28;58539;-72
2023/04/30 10:33:06;;;;;;;4.60;2.92;;;;;;;;;;4974727;28;59455;-75
2023/04/30 10:35:39;;;;;;;4.90;2.85;;;;;;;;;;4978380;28;59616;-69
2023/04/30 10:38:31;;;;;;;1.88;1.77;;;;;;;;;;4975189;28;59520;-68
2023/04/30 10:40:57;;;;;;;2.40;2.20;;;;;;;;;;4968980;28;59136;-73
2023/04/30 10:43:23;;;;;;;3.88;2.60;;;;;;;;;;4974141;28;59571;-71
2023/04/30 10:45:48;;;;;;;5.00;2.92;;;;;;;;;;4973395;28;59511;-71
2023/04/30 10:48:14;;;;;;;4.17;2.30;;;;;;;;;;4976682;28;59495;-71
2023/04/30 10:50:43;;;;;;;4.00;2.25;;;;;;;;;;4972266;28;59709;-71
2023/04/30 10:53:14;;;;;;;2.17;1.88;;;;;;;;;;4974014;28;60141;-68
2023/04/30 10:55:47;;;;;;;3.45;2.63;;;;;;;;;;4978960;28;59682;-73
2023/04/30 10:58:22;;;;;;;5.25;2.47;;;;;;;;;;4976338;28;59751;-71
2023/04/30 11:00:50;;;;;;;5.13;2.83;;;;;;;;;;4972712;28;60647;-71
2023/04/30 11:03:15;;;;;;;2.45;1.63;;;;;;;;;;4974283;28;59207;-74
2023/04/30 11:05:40;;;;;;;6.07;2.53;;;;;;;;;;4976779;28;59513;-74
2023/04/30 11:08:10;;;;;;;9.33;2.53;;;;;;;;;;4980413;28;59695;-75
2023/04/30 11:10:35;;;;;;;5.82;2.63;;;;;;;;;;4977540;28;60786;-66
2023/04/30 11:13:04;;;;;;;3.27;1.93;;;;;;;;;;4978934;28;59409;-66
2023/04/30 11:15:35;;;;;;;5.75;1.63;;;;;;;;;;4976505;28;61096;-67
2023/04/30 11:18:00;;;;;;;4.60;1.50;;;;;;;;;;4973822;28;58947;-67
2023/04/30 11:20:26;;;;;;;1.83;1.23;;;;;;;;;;4977427;28;60571;-71
2023/04/30 11:23:10;;;;;;;2.63;1.55;;;;;;;;;;4973379;28;61388;-70
2023/04/30 11:25:46;;;;;;;3.03;1.23;;;;;;;;;;4978875;28;59383;-69
2023/04/30 11:28:13;;;;;;;4.45;2.42;;;;;;;;;;4975166;28;59201;-70
2023/04/30 11:30:39;;;;;;;4.28;1.20;;;;;;;;;;4982777;28;59128;-74
2023/04/30 11:33:04;;;;;;;5.07;2.37;;;;;;;;;;4981723;28;58567;-68
2023/04/30 11:35:31;;;;;;;3.70;1.63;;;;;;;;;;4976298;28;60522;-68
2023/04/30 11:37:56;;;;;;;2.08;1.08;;;;;;;;;;4977429;28;59320;-69
2023/04/30 11:40:22;;;;;;;3.60;1.70;;;;;;;;;;4975834;28;59169;-71
2023/04/30 11:42:47;;;;;;;1.70;1.25;;;;;;;;;;4979807;28;59197;-69
2023/04/30 11:45:16;;;;;;;1.67;1.27;;;;;;;;;;4976063;28;59651;-69
2023/04/30 11:47:41;;;;;;;1.88;1.10;;;;;;;;;;4978233;28;59578;-67
2023/04/30 11:50:10;;;;;;;2.90;1.63;;;;;;;;;;4975620;28;59459;-71
2023/04/30 11:52:36;;;;;;;5.55;2.60;;;;;;;;;;4976021;28;59231;-71
2023/04/30 11:55:04;;;;;;;6.95;1.33;;;;;;;;;;4980559;28;59199;-73
2023/04/30 11:57:33;;;;;;;5.97;1.73;;;;;;;;;;4982975;28;60261;-69
2023/04/30 12:00:06;;;;;;;3.30;1.13;;;;;;;;;;4976052;28;59330;-70
2023/04/30 12:02:31;;;;;;;3.80;1.17;;;;;;;;;;4978989;28;60224;-71
2023/04/30 12:04:57;;;;;;;3.10;2.00;;;;;;;;;;4979047;28;60456;-72
2023/04/30 12:07:22;;;;;;;3.88;1.25;;;;;;;;;;4980018;28;59702;-70
2023/04/30 12:09:54;;;;;;;4.07;1.13;;;;;;;;;;4974800;28;59312;-69
2023/04/30 12:12:26;;;;;;;7.53;1.17;;;;;;;;;;4982021;28;60113;-68
2023/04/30 12:14:51;;;;;;;6.95;1.35;;;;;;;;;;4982484;28;59576;-70
2023/04/30 12:17:33;;;;;;;5.90;1.53;;;;;;;;;;4978958;28;59218;-69
2023/04/30 12:19:58;;;;;;;5.40;1.85;;;;;;;;;;4975211;28;59471;-67
2023/04/30 12:22:23;;;;;;;5.30;1.23;;;;;;;;;;4972056;28;59501;-69
2023/04/30 12:24:48;;;;;;;11.40;1.80;;;;;;;;;;4981598;28;59277;-69
2023/04/30 12:27:14;;;;;;;3.87;1.63;;;;;;;;;;4985417;28;59212;-67
2023/04/30 12:29:43;;;;;;;4.33;1.33;;;;;;;;;;4981834;28;59908;-69
2023/04/30 12:32:08;;;;;;;12.23;2.90;;;;;;;;;;4979145;28;59427;-69
2023/04/30 12:34:36;;;;;;;5.13;1.90;;;;;;;;;;4975364;28;59895;-69
2023/04/30 12:37:01;;;;;;;6.40;1.35;;;;;;;;;;4979401;28;59313;-77
2023/04/30 12:39:32;;;;;;;4.53;1.50;;;;;;;;;;4978973;28;59246;-73
2023/04/30 12:41:58;;;;;;;5.75;1.77;;;;;;;;;;4982299;28;60995;-70
2023/04/30 12:44:25;;;;;;;6.97;2.05;;;;;;;;;;4978723;28;59396;-71
2023/04/30 12:46:54;;;;;;;5.35;1.48;;;;;;;;;;4981004;28;59601;-71
2023/04/30 12:49:27;;;;;;;5.03;1.27;;;;;;;;;;4978139;28;59939;-75
2023/04/30 12:51:57;;;;;;;3.83;1.30;;;;;;;;;;4978201;28;59424;-69
2023/04/30 12:54:29;;;;;;;6.07;1.42;;;;;;;;;;4984248;28;58907;-72
2023/04/30 12:57:05;;;;;;;7.85;1.90;;;;;;;;;;4982095;28;59343;-71
2023/04/30 12:59:31;;;;;;;4.40;1.20;;;;;;;;;;4982417;28;59368;-72
2023/04/30 13:02:10;;;;;;;5.90;1.92;;;;;;;;;;4982902;28;59244;-71
2023/04/30 13:04:36;;;;;;;8.98;2.00;;;;;;;;;;4981683;28;59668;-68
2023/04/30 13:07:02;;;;;;;4.78;1.55;;;;;;;;;;4981627;28;59234;-69
2023/04/30 13:09:27;;;;;;;9.82;1.42;;;;;;;;;;4979699;28;59748;-71
2023/04/30 13:11:53;;;;;;;12.70;1.80;;;;;;;;;;4983970;28;59075;-71
2023/04/30 13:14:18;;;;;;;8.57;2.40;;;;;;;;;;4982255;28;59265;-74
2023/04/30 13:16:43;;;;;;;5.67;1.50;;;;;;;;;;4981641;28;60272;-72
2023/04/30 13:19:08;;;;;;;23.20;1.87;;;;;;;;;;4987431;28;59682;-72
2023/04/30 13:21:34;;;;;;;6.60;1.83;;;;;;;;;;4984806;28;59135;-73
2023/04/30 13:23:59;;;;;;;6.37;1.10;;;;;;;;;;4980205;28;59483;-67
2023/04/30 13:26:25;;;;;;;4.18;1.50;;;;;;;;;;4984239;28;59119;-72
2023/04/30 13:28:50;;;;;;;4.45;3.13;;;;;;;;;;4986333;28;59214;-73
2023/04/30 13:31:15;;;;;;;3.83;1.23;;;;;;;;;;4986127;28;58850;-73
2023/04/30 13:33:41;;;;;;;3.95;1.23;;;;;;;;;;4983577;28;59842;-73
2023/04/30 13:36:06;;;;;;;5.40;1.30;;;;;;;;;;4983396;28;60038;-73
2023/04/30 13:38:31;;;;;;;3.07;0.90;;;;;;;;;;4979496;28;59600;-69
2023/04/30 13:40:57;;;;;;;2.50;1.13;;;;;;;;;;4989220;28;59376;-72
2023/04/30 13:43:22;;;;;;;4.60;1.40;;;;;;;;;;5001795;28;59486;-72
2023/04/30 13:45:47;;;;;;;1.50;0.70;;;;;;;;;;4980202;28;59287;-73
2023/04/30 13:48:12;;;;;;;4.72;1.20;;;;;;;;;;4978637;28;60054;-73
2023/04/30 13:50:37;;;;;;;4.40;1.75;;;;;;;;;;4983724;28;59499;-72
2023/04/30 13:53:02;;;;;;;2.47;1.10;;;;;;;;;;4987835;28;59201;-73
2023/04/30 13:55:28;;;;;;;9.13;1.50;;;;;;;;;;4985271;28;59366;-73
2023/04/30 13:57:53;;;;;;;5.75;1.80;;;;;;;;;;4982925;28;59231;-71
2023/04/30 14:00:18;;;;;;;4.63;1.33;;;;;;;;;;4980636;28;59306;-72
2023/04/30 14:02:43;;;;;;;5.67;1.17;;;;;;;;;;4982478;28;59380;-68
2023/04/30 14:05:09;;;;;;;1.93;1.17;;;;;;;;;;4980733;28;59437;-71
2023/04/30 14:07:34;;;;;;;4.50;1.10;;;;;;;;;;4982870;28;60724;-70
2023/04/30 14:09:59;;;;;;;4.20;1.05;;;;;;;;;;4983210;28;59302;-71
2023/04/30 14:12:24;;;;;;;5.47;1.50;;;;;;;;;;4980151;28;59403;-71
2023/04/30 14:14:49;;;;;;;2.73;1.23;;;;;;;;;;4979427;28;59145;-70
2023/04/30 14:17:15;;;;;;;3.83;1.48;;;;;;;;;;4981758;28;59118;-69
2023/04/30 14:19:40;;;;;;;1.43;1.20;;;;;;;;;;4978876;28;59625;-70
2023/04/30 14:22:05;;;;;;;3.65;0.85;;;;;;;;;;4980695;28;59199;-69
2023/04/30 14:24:30;;;;;;;2.30;0.97;;;;;;;;;;4975905;28;59468;-68
2023/04/30 14:26:56;;;;;;;2.13;0.90;;;;;;;;;;4982119;28;59445;-69
2023/04/30 14:29:21;;;;;;;4.90;1.40;;;;;;;;;;4982756;28;59312;-68
2023/04/30 14:31:46;;;;;;;1.80;1.00;;;;;;;;;;4983412;28;59794;-70
2023/04/30 14:34:12;;;;;;;2.50;1.40;;;;;;;;;;4980514;28;59517;-69
2023/04/30 14:36:37;;;;;;;1.13;0.80;;;;;;;;;;4977526;28;59504;-70
2023/04/30 14:39:03;;;;;;;0.97;0.70;;;;;;;;;;4984715;28;59189;-71